Hennessey, Oklahoma
Current Conditions -  °F | °C
As of 7:40 AM on Friday 19 Dec 2014 (Local Time) from KEND Reporting Station
Haze Haze  
Wind Chill: 30°   Ceiling: 500
Heat Index: 34°   Visibility: 3mi
Dew Point: 32°   Wind: 5mph
Humidity: 93%   Direction: 90°E
Pressure: 30.24"   Gusts: NA
Location:  36.11°N, 97.9°W
Report Text: KEND 191340Z 09004KT 3SM BR OVC005 01/00 A3024 RMK AO2A SLP250
Loading
Personal Weather Stations






























Interactive Weather Map New forecast layout! Learn more

10-Day Weather Forecast

Advertisements
Track Severe Weather on mobile